sensor_id;sensor_type;location;lat;lon;timestamp;P1;durP1;ratioP1;P2;durP2;ratioP2
56102;SDS011;41970;48.774;9.280;2023-04-10T00:00:08;8.10;;;7.00;;
56102;SDS011;41970;48.774;9.280;2023-04-10T00:02:34;9.60;;;6.47;;
56102;SDS011;41970;48.774;9.280;2023-04-10T00:05:02;8.67;;;7.00;;
56102;SDS011;41970;48.774;9.280;2023-04-10T00:07:28;10.23;;;6.60;;
56102;SDS011;41970;48.774;9.280;2023-04-10T00:09:54;8.98;;;7.40;;
56102;SDS011;41970;48.774;9.280;2023-04-10T00:12:20;9.30;;;7.10;;
56102;SDS011;41970;48.774;9.280;2023-04-10T00:14:45;8.50;;;6.63;;
56102;SDS011;41970;48.774;9.280;2023-04-10T00:17:11;10.10;;;7.93;;
56102;SDS011;41970;48.774;9.280;2023-04-10T00:19:37;8.77;;;6.97;;
56102;SDS011;41970;48.774;9.280;2023-04-10T00:22:03;8.43;;;6.80;;
56102;SDS011;41970;48.774;9.280;2023-04-10T00:24:29;7.65;;;6.07;;
56102;SDS011;41970;48.774;9.280;2023-04-10T00:26:55;8.63;;;7.70;;
56102;SDS011;41970;48.774;9.280;2023-04-10T00:29:22;9.90;;;6.73;;
56102;SDS011;41970;48.774;9.280;2023-04-10T00:31:48;9.17;;;7.90;;
56102;SDS011;41970;48.774;9.280;2023-04-10T00:34:14;9.40;;;7.70;;
56102;SDS011;41970;48.774;9.280;2023-04-10T00:36:40;9.13;;;6.57;;
56102;SDS011;41970;48.774;9.280;2023-04-10T00:39:07;9.13;;;6.43;;
56102;SDS011;41970;48.774;9.280;2023-04-10T00:41:33;8.77;;;6.90;;
56102;SDS011;41970;48.774;9.280;2023-04-10T00:43:59;8.33;;;6.87;;
56102;SDS011;41970;48.774;9.280;2023-04-10T00:46:25;8.83;;;7.03;;
56102;SDS011;41970;48.774;9.280;2023-04-10T00:48:52;8.77;;;7.35;;
56102;SDS011;41970;48.774;9.280;2023-04-10T00:51:20;8.02;;;6.97;;
56102;SDS011;41970;48.774;9.280;2023-04-10T00:53:47;7.43;;;6.13;;
56102;SDS011;41970;48.774;9.280;2023-04-10T00:56:15;9.80;;;7.40;;
56102;SDS011;41970;48.774;9.280;2023-04-10T00:58:42;7.32;;;6.28;;
56102;SDS011;41970;48.774;9.280;2023-04-10T01:01:08;7.30;;;6.30;;
56102;SDS011;41970;48.774;9.280;2023-04-10T01:03:33;9.20;;;6.07;;
56102;SDS011;41970;48.774;9.280;2023-04-10T01:11:07;7.07;;;6.13;;
56102;SDS011;41970;48.774;9.280;2023-04-10T01:13:58;6.95;;;6.03;;
56102;SDS011;41970;48.774;9.280;2023-04-10T01:16:35;8.05;;;6.63;;
56102;SDS011;41970;48.774;9.280;2023-04-10T01:22:27;7.63;;;6.85;;
56102;SDS011;41970;48.774;9.280;2023-04-10T01:27:51;9.30;;;6.07;;
56102;SDS011;41970;48.774;9.280;2023-04-10T01:30:41;8.43;;;7.40;;
56102;SDS011;41970;48.774;9.280;2023-04-10T01:33:08;8.07;;;6.10;;
56102;SDS011;41970;48.774;9.280;2023-04-10T01:35:37;7.38;;;6.10;;
56102;SDS011;41970;48.774;9.280;2023-04-10T01:38:05;7.10;;;6.40;;
56102;SDS011;41970;48.774;9.280;2023-04-10T01:40:32;11.02;;;8.07;;
56102;SDS011;41970;48.774;9.280;2023-04-10T01:43:02;11.68;;;7.60;;
56102;SDS011;41970;48.774;9.280;2023-04-10T01:45:33;9.80;;;7.57;;
56102;SDS011;41970;48.774;9.280;2023-04-10T01:48:00;7.40;;;6.28;;
56102;SDS011;41970;48.774;9.280;2023-04-10T01:50:26;10.37;;;6.80;;
56102;SDS011;41970;48.774;9.280;2023-04-10T01:52:54;7.72;;;6.30;;
56102;SDS011;41970;48.774;9.280;2023-04-10T01:55:21;7.10;;;6.40;;
56102;SDS011;41970;48.774;9.280;2023-04-10T01:57:48;8.57;;;6.57;;
56102;SDS011;41970;48.774;9.280;2023-04-10T02:00:15;7.45;;;6.25;;
56102;SDS011;41970;48.774;9.280;2023-04-10T02:02:41;7.82;;;6.15;;
56102;SDS011;41970;48.774;9.280;2023-04-10T02:05:08;7.82;;;6.20;;
56102;SDS011;41970;48.774;9.280;2023-04-10T02:07:45;9.63;;;6.85;;
56102;SDS011;41970;48.774;9.280;2023-04-10T02:10:28;8.75;;;7.22;;
56102;SDS011;41970;48.774;9.280;2023-04-10T02:13:05;6.60;;;5.82;;
56102;SDS011;41970;48.774;9.280;2023-04-10T02:15:32;8.55;;;6.47;;
56102;SDS011;41970;48.774;9.280;2023-04-10T02:18:00;9.05;;;6.75;;
56102;SDS011;41970;48.774;9.280;2023-04-10T02:20:29;7.50;;;6.25;;
56102;SDS011;41970;48.774;9.280;2023-04-10T02:22:56;6.93;;;6.20;;
56102;SDS011;41970;48.774;9.280;2023-04-10T02:25:31;7.35;;;6.60;;
56102;SDS011;41970;48.774;9.280;2023-04-10T02:27:57;8.65;;;6.18;;
56102;SDS011;41970;48.774;9.280;2023-04-10T02:30:27;7.88;;;6.32;;
56102;SDS011;41970;48.774;9.280;2023-04-10T02:32:53;6.97;;;5.73;;
56102;SDS011;41970;48.774;9.280;2023-04-10T02:35:20;7.97;;;6.45;;
56102;SDS011;41970;48.774;9.280;2023-04-10T02:37:46;8.70;;;6.40;;
56102;SDS011;41970;48.774;9.280;2023-04-10T02:40:12;6.57;;;5.38;;
56102;SDS011;41970;48.774;9.280;2023-04-10T02:42:38;8.37;;;7.17;;
56102;SDS011;41970;48.774;9.280;2023-04-10T02:45:04;7.57;;;6.37;;
56102;SDS011;41970;48.774;9.280;2023-04-10T02:47:30;7.60;;;6.75;;
56102;SDS011;41970;48.774;9.280;2023-04-10T02:49:56;9.03;;;7.47;;
56102;SDS011;41970;48.774;9.280;2023-04-10T02:52:22;11.07;;;6.73;;
56102;SDS011;41970;48.774;9.280;2023-04-10T02:54:48;7.10;;;5.97;;
56102;SDS011;41970;48.774;9.280;2023-04-10T02:57:14;7.60;;;6.67;;
56102;SDS011;41970;48.774;9.280;2023-04-10T02:59:40;7.47;;;5.60;;
56102;SDS011;41970;48.774;9.280;2023-04-10T03:02:06;8.40;;;6.67;;
56102;SDS011;41970;48.774;9.280;2023-04-10T03:04:32;8.10;;;6.80;;
56102;SDS011;41970;48.774;9.280;2023-04-10T03:06:58;8.63;;;6.53;;
56102;SDS011;41970;48.774;9.280;2023-04-10T03:09:24;8.07;;;7.27;;
56102;SDS011;41970;48.774;9.280;2023-04-10T03:11:50;7.53;;;6.22;;
56102;SDS011;41970;48.774;9.280;2023-04-10T03:14:16;8.83;;;6.77;;
56102;SDS011;41970;48.774;9.280;2023-04-10T03:16:43;8.02;;;7.22;;
56102;SDS011;41970;48.774;9.280;2023-04-10T03:19:11;10.27;;;7.78;;
56102;SDS011;41970;48.774;9.280;2023-04-10T03:21:37;8.43;;;7.35;;
56102;SDS011;41970;48.774;9.280;2023-04-10T03:24:03;7.10;;;6.23;;
56102;SDS011;41970;48.774;9.280;2023-04-10T03:26:30;11.25;;;7.60;;
56102;SDS011;41970;48.774;9.280;2023-04-10T03:28:56;10.43;;;6.90;;
56102;SDS011;41970;48.774;9.280;2023-04-10T03:31:22;10.10;;;7.77;;
56102;SDS011;41970;48.774;9.280;2023-04-10T03:33:48;8.77;;;6.87;;
56102;SDS011;41970;48.774;9.280;2023-04-10T03:36:13;10.93;;;7.60;;
56102;SDS011;41970;48.774;9.280;2023-04-10T03:38:39;10.37;;;7.93;;
56102;SDS011;41970;48.774;9.280;2023-04-10T03:41:05;8.93;;;7.77;;
56102;SDS011;41970;48.774;9.280;2023-04-10T03:43:31;9.60;;;7.32;;
56102;SDS011;41970;48.774;9.280;2023-04-10T03:45:57;8.90;;;6.80;;
56102;SDS011;41970;48.774;9.280;2023-04-10T03:48:23;10.10;;;7.03;;
56102;SDS011;41970;48.774;9.280;2023-04-10T03:50:52;8.93;;;7.07;;
56102;SDS011;41970;48.774;9.280;2023-04-10T03:53:18;9.23;;;7.05;;
56102;SDS011;41970;48.774;9.280;2023-04-10T03:55:44;12.00;;;8.07;;
56102;SDS011;41970;48.774;9.280;2023-04-10T03:58:10;9.40;;;7.00;;
56102;SDS011;41970;48.774;9.280;2023-04-10T04:00:37;11.80;;;8.60;;
56102;SDS011;41970;48.774;9.280;2023-04-10T04:03:03;11.00;;;7.40;;
56102;SDS011;41970;48.774;9.280;2023-04-10T04:05:32;8.52;;;7.60;;
56102;SDS011;41970;48.774;9.280;2023-04-10T04:07:57;11.10;;;7.75;;
56102;SDS011;41970;48.774;9.280;2023-04-10T04:10:23;10.50;;;7.90;;
56102;SDS011;41970;48.774;9.280;2023-04-10T04:12:49;10.23;;;7.57;;
56102;SDS011;41970;48.774;9.280;2023-04-10T04:15:15;9.83;;;7.73;;
56102;SDS011;41970;48.774;9.280;2023-04-10T04:17:40;12.60;;;8.57;;
56102;SDS011;41970;48.774;9.280;2023-04-10T04:20:07;10.65;;;8.25;;
56102;SDS011;41970;48.774;9.280;2023-04-10T04:22:33;8.65;;;7.22;;
56102;SDS011;41970;48.774;9.280;2023-04-10T04:24:59;8.33;;;6.63;;
56102;SDS011;41970;48.774;9.280;2023-04-10T04:27:24;8.97;;;7.80;;
56102;SDS011;41970;48.774;9.280;2023-04-10T04:29:50;10.93;;;6.80;;
56102;SDS011;41970;48.774;9.280;2023-04-10T04:32:16;10.17;;;7.70;;
56102;SDS011;41970;48.774;9.280;2023-04-10T04:34:41;8.73;;;6.53;;
56102;SDS011;41970;48.774;9.280;2023-04-10T04:37:07;11.53;;;9.80;;
56102;SDS011;41970;48.774;9.280;2023-04-10T04:39:33;9.10;;;7.20;;
56102;SDS011;41970;48.774;9.280;2023-04-10T04:41:58;10.07;;;7.87;;
56102;SDS011;41970;48.774;9.280;2023-04-10T04:44:25;9.68;;;7.20;;
56102;SDS011;41970;48.774;9.280;2023-04-10T04:46:51;8.30;;;6.07;;
56102;SDS011;41970;48.774;9.280;2023-04-10T04:49:16;8.73;;;6.97;;
56102;SDS011;41970;48.774;9.280;2023-04-10T04:51:42;9.00;;;6.20;;
56102;SDS011;41970;48.774;9.280;2023-04-10T04:54:08;9.17;;;6.87;;
56102;SDS011;41970;48.774;9.280;2023-04-10T04:56:34;9.27;;;7.33;;
56102;SDS011;41970;48.774;9.280;2023-04-10T04:59:00;8.80;;;7.00;;
56102;SDS011;41970;48.774;9.280;2023-04-10T05:01:26;10.75;;;8.27;;
56102;SDS011;41970;48.774;9.280;2023-04-10T05:03:51;9.10;;;6.50;;
56102;SDS011;41970;48.774;9.280;2023-04-10T05:06:17;8.70;;;7.77;;
56102;SDS011;41970;48.774;9.280;2023-04-10T05:08:43;9.73;;;7.70;;
56102;SDS011;41970;48.774;9.280;2023-04-10T05:11:09;8.25;;;6.80;;
56102;SDS011;41970;48.774;9.280;2023-04-10T05:13:35;9.73;;;6.50;;
56102;SDS011;41970;48.774;9.280;2023-04-10T05:16:01;10.57;;;7.10;;
56102;SDS011;41970;48.774;9.280;2023-04-10T05:18:26;9.90;;;8.50;;
56102;SDS011;41970;48.774;9.280;2023-04-10T05:20:52;11.77;;;7.60;;
56102;SDS011;41970;48.774;9.280;2023-04-10T05:23:18;10.03;;;7.40;;
56102;SDS011;41970;48.774;9.280;2023-04-10T05:25:44;9.27;;;7.50;;
56102;SDS011;41970;48.774;9.280;2023-04-10T05:28:10;10.00;;;8.02;;
56102;SDS011;41970;48.774;9.280;2023-04-10T05:30:35;9.40;;;7.30;;
56102;SDS011;41970;48.774;9.280;2023-04-10T05:33:01;9.00;;;7.00;;
56102;SDS011;41970;48.774;9.280;2023-04-10T05:35:27;7.90;;;7.07;;
56102;SDS011;41970;48.774;9.280;2023-04-10T05:37:53;10.23;;;7.10;;
56102;SDS011;41970;48.774;9.280;2023-04-10T05:40:19;7.20;;;6.30;;
56102;SDS011;41970;48.774;9.280;2023-04-10T05:42:44;8.40;;;7.45;;
56102;SDS011;41970;48.774;9.280;2023-04-10T05:45:11;9.63;;;8.05;;
56102;SDS011;41970;48.774;9.280;2023-04-10T05:47:38;9.48;;;6.75;;
56102;SDS011;41970;48.774;9.280;2023-04-10T05:50:04;12.80;;;7.60;;
56102;SDS011;41970;48.774;9.280;2023-04-10T05:52:30;8.60;;;6.72;;
56102;SDS011;41970;48.774;9.280;2023-04-10T05:54:56;8.50;;;7.07;;
56102;SDS011;41970;48.774;9.280;2023-04-10T05:57:23;7.97;;;6.77;;
56102;SDS011;41970;48.774;9.280;2023-04-10T05:59:49;7.47;;;6.25;;
56102;SDS011;41970;48.774;9.280;2023-04-10T06:02:15;10.87;;;7.40;;
56102;SDS011;41970;48.774;9.280;2023-04-10T06:04:41;9.40;;;7.20;;
56102;SDS011;41970;48.774;9.280;2023-04-10T06:07:06;10.00;;;7.30;;
56102;SDS011;41970;48.774;9.280;2023-04-10T06:09:32;9.80;;;8.17;;
56102;SDS011;41970;48.774;9.280;2023-04-10T06:11:58;10.77;;;8.17;;
56102;SDS011;41970;48.774;9.280;2023-04-10T06:14:24;9.67;;;8.40;;
56102;SDS011;41970;48.774;9.280;2023-04-10T06:16:49;11.63;;;8.00;;
56102;SDS011;41970;48.774;9.280;2023-04-10T06:19:15;9.97;;;7.93;;
56102;SDS011;41970;48.774;9.280;2023-04-10T06:21:41;10.43;;;9.10;;
56102;SDS011;41970;48.774;9.280;2023-04-10T06:24:07;10.37;;;8.60;;
56102;SDS011;41970;48.774;9.280;2023-04-10T06:26:32;10.97;;;8.53;;
56102;SDS011;41970;48.774;9.280;2023-04-10T06:28:58;10.00;;;8.50;;
56102;SDS011;41970;48.774;9.280;2023-04-10T06:31:24;11.03;;;9.37;;
56102;SDS011;41970;48.774;9.280;2023-04-10T06:33:51;11.97;;;9.83;;
56102;SDS011;41970;48.774;9.280;2023-04-10T06:36:16;10.43;;;9.33;;
56102;SDS011;41970;48.774;9.280;2023-04-10T06:38:42;12.63;;;9.70;;
56102;SDS011;41970;48.774;9.280;2023-04-10T06:41:08;12.27;;;9.10;;
56102;SDS011;41970;48.774;9.280;2023-04-10T06:43:34;12.23;;;8.90;;
56102;SDS011;41970;48.774;9.280;2023-04-10T06:46:04;12.20;;;10.17;;
56102;SDS011;41970;48.774;9.280;2023-04-10T06:48:30;8.90;;;7.67;;
56102;SDS011;41970;48.774;9.280;2023-04-10T06:50:56;10.73;;;8.23;;
56102;SDS011;41970;48.774;9.280;2023-04-10T06:53:24;12.40;;;9.57;;
56102;SDS011;41970;48.774;9.280;2023-04-10T06:55:51;10.37;;;8.97;;
56102;SDS011;41970;48.774;9.280;2023-04-10T06:58:17;12.47;;;10.37;;
56102;SDS011;41970;48.774;9.280;2023-04-10T07:00:42;11.00;;;9.70;;
56102;SDS011;41970;48.774;9.280;2023-04-10T07:03:08;12.07;;;9.87;;
56102;SDS011;41970;48.774;9.280;2023-04-10T07:05:34;11.90;;;8.93;;
56102;SDS011;41970;48.774;9.280;2023-04-10T07:08:00;11.10;;;9.20;;
56102;SDS011;41970;48.774;9.280;2023-04-10T07:10:25;12.00;;;9.50;;
56102;SDS011;41970;48.774;9.280;2023-04-10T07:12:52;9.80;;;8.80;;
56102;SDS011;41970;48.774;9.280;2023-04-10T07:15:18;11.57;;;9.17;;
56102;SDS011;41970;48.774;9.280;2023-04-10T07:17:46;10.00;;;8.43;;
56102;SDS011;41970;48.774;9.280;2023-04-10T07:20:12;9.10;;;7.10;;
56102;SDS011;41970;48.774;9.280;2023-04-10T07:22:38;15.30;;;9.00;;
56102;SDS011;41970;48.774;9.280;2023-04-10T07:25:04;7.87;;;6.97;;
56102;SDS011;41970;48.774;9.280;2023-04-10T07:27:31;8.63;;;7.37;;
56102;SDS011;41970;48.774;9.280;2023-04-10T07:29:57;7.33;;;6.17;;
56102;SDS011;41970;48.774;9.280;2023-04-10T07:32:22;7.30;;;6.60;;
56102;SDS011;41970;48.774;9.280;2023-04-10T07:34:48;6.73;;;5.90;;
56102;SDS011;41970;48.774;9.280;2023-04-10T07:37:14;6.63;;;6.03;;
56102;SDS011;41970;48.774;9.280;2023-04-10T07:39:42;5.70;;;5.20;;
56102;SDS011;41970;48.774;9.280;2023-04-10T07:42:08;6.27;;;5.43;;
56102;SDS011;41970;48.774;9.280;2023-04-10T07:44:35;5.50;;;5.00;;
56102;SDS011;41970;48.774;9.280;2023-04-10T07:47:01;5.13;;;4.53;;
56102;SDS011;41970;48.774;9.280;2023-04-10T07:49:27;6.43;;;5.47;;
56102;SDS011;41970;48.774;9.280;2023-04-10T07:51:53;6.40;;;5.77;;
56102;SDS011;41970;48.774;9.280;2023-04-10T07:54:19;5.43;;;4.93;;
56102;SDS011;41970;48.774;9.280;2023-04-10T07:56:45;5.80;;;5.13;;
56102;SDS011;41970;48.774;9.280;2023-04-10T07:59:11;6.23;;;5.30;;
56102;SDS011;41970;48.774;9.280;2023-04-10T08:01:37;5.50;;;5.00;;
56102;SDS011;41970;48.774;9.280;2023-04-10T08:04:02;5.70;;;5.20;;
56102;SDS011;41970;48.774;9.280;2023-04-10T08:06:28;5.90;;;5.30;;
56102;SDS011;41970;48.774;9.280;2023-04-10T08:08:56;6.37;;;4.87;;
56102;SDS011;41970;48.774;9.280;2023-04-10T08:11:26;5.67;;;4.43;;
56102;SDS011;41970;48.774;9.280;2023-04-10T08:13:56;4.77;;;4.30;;
56102;SDS011;41970;48.774;9.280;2023-04-10T08:16:26;4.90;;;4.50;;
56102;SDS011;41970;48.774;9.280;2023-04-10T08:18:53;4.30;;;3.90;;
56102;SDS011;41970;48.774;9.280;2023-04-10T08:21:22;5.50;;;4.27;;
56102;SDS011;41970;48.774;9.280;2023-04-10T08:23:52;4.13;;;3.73;;
56102;SDS011;41970;48.774;9.280;2023-04-10T08:26:18;4.67;;;4.20;;
56102;SDS011;41970;48.774;9.280;2023-04-10T08:28:48;5.93;;;4.70;;
56102;SDS011;41970;48.774;9.280;2023-04-10T08:31:19;6.23;;;4.60;;
56102;SDS011;41970;48.774;9.280;2023-04-10T08:33:46;4.03;;;3.73;;
56102;SDS011;41970;48.774;9.280;2023-04-10T08:36:13;5.23;;;4.77;;
56102;SDS011;41970;48.774;9.280;2023-04-10T08:38:40;4.80;;;4.30;;
56102;SDS011;41970;48.774;9.280;2023-04-10T08:41:09;4.20;;;3.73;;
56102;SDS011;41970;48.774;9.280;2023-04-10T08:43:36;4.13;;;3.73;;
56102;SDS011;41970;48.774;9.280;2023-04-10T08:46:02;5.60;;;3.93;;
56102;SDS011;41970;48.774;9.280;2023-04-10T08:48:37;4.43;;;3.93;;
56102;SDS011;41970;48.774;9.280;2023-04-10T08:51:06;4.20;;;3.80;;
56102;SDS011;41970;48.774;9.280;2023-04-10T08:53:33;5.00;;;4.47;;
56102;SDS011;41970;48.774;9.280;2023-04-10T08:56:05;5.30;;;4.27;;
56102;SDS011;41970;48.774;9.280;2023-04-10T08:58:32;4.60;;;4.20;;
56102;SDS011;41970;48.774;9.280;2023-04-10T09:00:58;4.50;;;3.50;;
56102;SDS011;41970;48.774;9.280;2023-04-10T09:03:25;4.90;;;4.50;;
56102;SDS011;41970;48.774;9.280;2023-04-10T09:05:51;4.17;;;3.77;;
56102;SDS011;41970;48.774;9.280;2023-04-10T09:08:18;3.90;;;3.53;;
56102;SDS011;41970;48.774;9.280;2023-04-10T09:10:44;3.90;;;3.60;;
56102;SDS011;41970;48.774;9.280;2023-04-10T09:13:10;4.23;;;3.83;;
56102;SDS011;41970;48.774;9.280;2023-04-10T09:15:54;4.20;;;3.80;;
56102;SDS011;41970;48.774;9.280;2023-04-10T09:18:21;3.63;;;3.27;;
56102;SDS011;41970;48.774;9.280;2023-04-10T09:20:47;4.30;;;3.90;;
56102;SDS011;41970;48.774;9.280;2023-04-10T09:23:24;7.30;;;3.63;;
56102;SDS011;41970;48.774;9.280;2023-04-10T09:25:50;4.03;;;3.67;;
56102;SDS011;41970;48.774;9.280;2023-04-10T09:28:16;3.17;;;2.80;;
56102;SDS011;41970;48.774;9.280;2023-04-10T09:30:41;3.90;;;3.47;;
56102;SDS011;41970;48.774;9.280;2023-04-10T09:33:20;4.00;;;3.60;;
56102;SDS011;41970;48.774;9.280;2023-04-10T09:35:47;3.70;;;3.40;;
56102;SDS011;41970;48.774;9.280;2023-04-10T09:38:14;3.63;;;3.33;;
56102;SDS011;41970;48.774;9.280;2023-04-10T09:40:44;5.37;;;3.70;;
56102;SDS011;41970;48.774;9.280;2023-04-10T09:43:23;11.80;;;3.50;;
56102;SDS011;41970;48.774;9.280;2023-04-10T09:45:51;3.83;;;3.53;;
56102;SDS011;41970;48.774;9.280;2023-04-10T09:48:18;3.70;;;3.30;;
56102;SDS011;41970;48.774;9.280;2023-04-10T09:50:46;3.37;;;3.13;;
56102;SDS011;41970;48.774;9.280;2023-04-10T09:53:16;3.83;;;3.53;;
56102;SDS011;41970;48.774;9.280;2023-04-10T09:55:43;3.50;;;3.20;;
56102;SDS011;41970;48.774;9.280;2023-04-10T09:58:11;2.80;;;2.60;;
56102;SDS011;41970;48.774;9.280;2023-04-10T10:00:39;3.20;;;2.97;;
56102;SDS011;41970;48.774;9.280;2023-04-10T10:03:07;3.10;;;2.80;;
56102;SDS011;41970;48.774;9.280;2023-04-10T10:05:38;3.00;;;2.57;;
56102;SDS011;41970;48.774;9.280;2023-04-10T10:08:09;3.67;;;2.90;;
56102;SDS011;41970;48.774;9.280;2023-04-10T10:10:37;2.90;;;2.70;;
56102;SDS011;41970;48.774;9.280;2023-04-10T10:13:09;3.27;;;2.97;;
56102;SDS011;41970;48.774;9.280;2023-04-10T10:15:50;3.40;;;3.10;;
56102;SDS011;41970;48.774;9.280;2023-04-10T10:21:27;3.30;;;2.73;;
56102;SDS011;41970;48.774;9.280;2023-04-10T10:23:54;2.53;;;2.33;;
56102;SDS011;41970;48.774;9.280;2023-04-10T10:26:22;3.30;;;2.70;;
56102;SDS011;41970;48.774;9.280;2023-04-10T10:28:50;2.97;;;2.77;;
56102;SDS011;41970;48.774;9.280;2023-04-10T10:31:18;3.50;;;3.20;;
56102;SDS011;41970;48.774;9.280;2023-04-10T10:33:46;2.50;;;2.30;;
56102;SDS011;41970;48.774;9.280;2023-04-10T10:36:13;5.70;;;3.13;;
56102;SDS011;41970;48.774;9.280;2023-04-10T10:38:43;2.73;;;2.53;;
56102;SDS011;41970;48.774;9.280;2023-04-10T10:41:21;3.70;;;2.80;;
56102;SDS011;41970;48.774;9.280;2023-04-10T10:47:42;2.53;;;2.33;;
56102;SDS011;41970;48.774;9.280;2023-04-10T10:52:36;2.80;;;2.50;;
56102;SDS011;41970;48.774;9.280;2023-04-10T10:57:47;3.50;;;3.20;;
56102;SDS011;41970;48.774;9.280;2023-04-10T11:00:14;2.60;;;2.40;;
56102;SDS011;41970;48.774;9.280;2023-04-10T11:02:40;2.60;;;2.40;;
56102;SDS011;41970;48.774;9.280;2023-04-10T11:05:06;2.40;;;2.20;;
56102;SDS011;41970;48.774;9.280;2023-04-10T11:08:05;2.40;;;2.20;;
56102;SDS011;41970;48.774;9.280;2023-04-10T11:13:38;2.50;;;2.27;;
56102;SDS011;41970;48.774;9.280;2023-04-10T11:16:06;3.20;;;2.90;;
56102;SDS011;41970;48.774;9.280;2023-04-10T11:21:12;2.50;;;2.20;;
56102;SDS011;41970;48.774;9.280;2023-04-10T11:31:40;2.20;;;2.00;;
56102;SDS011;41970;48.774;9.280;2023-04-10T11:34:07;2.63;;;2.37;;
56102;SDS011;41970;48.774;9.280;2023-04-10T11:36:37;2.23;;;2.03;;
56102;SDS011;41970;48.774;9.280;2023-04-10T11:39:05;2.13;;;1.87;;
56102;SDS011;41970;48.774;9.280;2023-04-10T11:41:38;2.20;;;2.03;;
56102;SDS011;41970;48.774;9.280;2023-04-10T11:44:32;1.50;;;1.40;;
56102;SDS011;41970;48.774;9.280;2023-04-10T11:46:59;2.00;;;1.83;;
56102;SDS011;41970;48.774;9.280;2023-04-10T11:49:32;1.77;;;1.67;;
56102;SDS011;41970;48.774;9.280;2023-04-10T11:51:58;5.10;;;2.70;;
56102;SDS011;41970;48.774;9.280;2023-04-10T11:54:25;2.00;;;1.90;;
56102;SDS011;41970;48.774;9.280;2023-04-10T11:59:33;2.47;;;2.20;;
56102;SDS011;41970;48.774;9.280;2023-04-10T12:02:06;1.60;;;1.50;;
56102;SDS011;41970;48.774;9.280;2023-04-10T12:04:39;1.90;;;1.70;;
56102;SDS011;41970;48.774;9.280;2023-04-10T12:07:06;1.30;;;1.20;;
56102;SDS011;41970;48.774;9.280;2023-04-10T12:09:34;1.77;;;1.67;;
56102;SDS011;41970;48.774;9.280;2023-04-10T12:12:04;2.13;;;1.50;;
56102;SDS011;41970;48.774;9.280;2023-04-10T12:16:58;2.07;;;1.90;;
56102;SDS011;41970;48.774;9.280;2023-04-10T12:19:24;1.90;;;1.70;;
56102;SDS011;41970;48.774;9.280;2023-04-10T12:21:50;1.60;;;1.50;;
56102;SDS011;41970;48.774;9.280;2023-04-10T12:27:19;1.40;;;1.30;;
56102;SDS011;41970;48.774;9.280;2023-04-10T12:29:52;1.43;;;1.33;;
56102;SDS011;41970;48.774;9.280;2023-04-10T12:32:22;1.47;;;1.37;;
56102;SDS011;41970;48.774;9.280;2023-04-10T12:34:58;1.60;;;1.50;;
56102;SDS011;41970;48.774;9.280;2023-04-10T12:37:49;1.50;;;1.40;;
56102;SDS011;41970;48.774;9.280;2023-04-10T12:40:15;1.70;;;1.60;;
56102;SDS011;41970;48.774;9.280;2023-04-10T12:42:41;1.50;;;1.40;;
56102;SDS011;41970;48.774;9.280;2023-04-10T12:45:08;1.63;;;1.53;;
56102;SDS011;41970;48.774;9.280;2023-04-10T12:47:46;1.57;;;1.47;;
56102;SDS011;41970;48.774;9.280;2023-04-10T12:50:13;1.57;;;1.47;;
56102;SDS011;41970;48.774;9.280;2023-04-10T12:52:44;1.90;;;1.80;;
56102;SDS011;41970;48.774;9.280;2023-04-10T12:55:25;2.70;;;1.70;;
56102;SDS011;41970;48.774;9.280;2023-04-10T12:57:50;4.90;;;1.50;;
56102;SDS011;41970;48.774;9.280;2023-04-10T13:00:17;5.13;;;1.50;;
56102;SDS011;41970;48.774;9.280;2023-04-10T13:02:44;1.50;;;1.40;;
56102;SDS011;41970;48.774;9.280;2023-04-10T13:05:11;1.50;;;1.40;;
56102;SDS011;41970;48.774;9.280;2023-04-10T13:07:37;1.97;;;1.77;;
56102;SDS011;41970;48.774;9.280;2023-04-10T13:10:03;1.63;;;1.53;;
56102;SDS011;41970;48.774;9.280;2023-04-10T13:12:31;1.60;;;1.50;;
56102;SDS011;41970;48.774;9.280;2023-04-10T13:14:58;1.93;;;1.73;;
56102;SDS011;41970;48.774;9.280;2023-04-10T13:17:25;1.83;;;1.63;;
56102;SDS011;41970;48.774;9.280;2023-04-10T13:19:51;1.90;;;1.80;;
56102;SDS011;41970;48.774;9.280;2023-04-10T13:22:18;2.00;;;1.90;;
56102;SDS011;41970;48.774;9.280;2023-04-10T13:24:47;1.57;;;1.47;;
56102;SDS011;41970;48.774;9.280;2023-04-10T13:27:13;1.60;;;1.50;;
56102;SDS011;41970;48.774;9.280;2023-04-10T13:29:39;2.10;;;1.90;;
56102;SDS011;41970;48.774;9.280;2023-04-10T13:32:06;5.10;;;1.87;;
56102;SDS011;41970;48.774;9.280;2023-04-10T13:34:32;1.70;;;1.60;;
56102;SDS011;41970;48.774;9.280;2023-04-10T13:36:58;2.20;;;2.00;;
56102;SDS011;41970;48.774;9.280;2023-04-10T13:39:25;1.90;;;1.80;;
56102;SDS011;41970;48.774;9.280;2023-04-10T13:41:55;1.80;;;1.70;;
56102;SDS011;41970;48.774;9.280;2023-04-10T13:44:21;2.30;;;2.07;;
56102;SDS011;41970;48.774;9.280;2023-04-10T13:46:47;1.80;;;1.70;;
56102;SDS011;41970;48.774;9.280;2023-04-10T13:49:13;1.70;;;1.60;;
56102;SDS011;41970;48.774;9.280;2023-04-10T13:51:44;1.90;;;1.80;;
56102;SDS011;41970;48.774;9.280;2023-04-10T13:54:10;2.20;;;1.80;;
56102;SDS011;41970;48.774;9.280;2023-04-10T13:56:36;2.10;;;1.90;;
56102;SDS011;41970;48.774;9.280;2023-04-10T13:59:02;1.80;;;1.67;;
56102;SDS011;41970;48.774;9.280;2023-04-10T14:01:28;1.80;;;1.70;;
56102;SDS011;41970;48.774;9.280;2023-04-10T14:03:54;2.90;;;1.80;;
56102;SDS011;41970;48.774;9.280;2023-04-10T14:06:20;1.63;;;1.53;;
56102;SDS011;41970;48.774;9.280;2023-04-10T14:08:46;1.63;;;1.50;;
56102;SDS011;41970;48.774;9.280;2023-04-10T14:11:11;1.60;;;1.50;;
56102;SDS011;41970;48.774;9.280;2023-04-10T14:13:37;1.63;;;1.53;;
56102;SDS011;41970;48.774;9.280;2023-04-10T14:16:03;2.20;;;2.00;;
56102;SDS011;41970;48.774;9.280;2023-04-10T14:18:29;2.03;;;1.83;;
56102;SDS011;41970;48.774;9.280;2023-04-10T14:20:54;2.20;;;1.80;;
56102;SDS011;41970;48.774;9.280;2023-04-10T14:23:20;1.80;;;1.70;;
56102;SDS011;41970;48.774;9.280;2023-04-10T14:25:48;2.13;;;1.93;;
56102;SDS011;41970;48.774;9.280;2023-04-10T14:28:14;2.27;;;1.87;;
56102;SDS011;41970;48.774;9.280;2023-04-10T14:30:47;1.67;;;1.57;;
56102;SDS011;41970;48.774;9.280;2023-04-10T14:33:14;2.57;;;2.37;;
56102;SDS011;41970;48.774;9.280;2023-04-10T14:35:40;1.83;;;1.73;;
56102;SDS011;41970;48.774;9.280;2023-04-10T14:38:07;3.50;;;1.63;;
56102;SDS011;41970;48.774;9.280;2023-04-10T14:40:32;2.30;;;2.10;;
56102;SDS011;41970;48.774;9.280;2023-04-10T14:42:58;2.40;;;2.20;;
56102;SDS011;41970;48.774;9.280;2023-04-10T14:45:24;1.90;;;1.80;;
56102;SDS011;41970;48.774;9.280;2023-04-10T14:47:50;2.30;;;2.10;;
56102;SDS011;41970;48.774;9.280;2023-04-10T14:50:17;1.77;;;1.67;;
56102;SDS011;41970;48.774;9.280;2023-04-10T14:52:43;1.80;;;1.70;;
56102;SDS011;41970;48.774;9.280;2023-04-10T14:55:09;2.40;;;2.13;;
56102;SDS011;41970;48.774;9.280;2023-04-10T14:57:35;2.43;;;2.13;;
56102;SDS011;41970;48.774;9.280;2023-04-10T15:00:01;2.00;;;1.63;;
56102;SDS011;41970;48.774;9.280;2023-04-10T15:02:27;1.73;;;1.63;;
56102;SDS011;41970;48.774;9.280;2023-04-10T15:04:54;1.70;;;1.60;;
56102;SDS011;41970;48.774;9.280;2023-04-10T15:07:20;1.70;;;1.60;;
56102;SDS011;41970;48.774;9.280;2023-04-10T15:09:46;1.70;;;1.60;;
56102;SDS011;41970;48.774;9.280;2023-04-10T15:12:12;1.83;;;1.70;;
56102;SDS011;41970;48.774;9.280;2023-04-10T15:14:38;2.07;;;1.70;;
56102;SDS011;41970;48.774;9.280;2023-04-10T15:17:03;2.00;;;1.90;;
56102;SDS011;41970;48.774;9.280;2023-04-10T15:19:29;1.97;;;1.77;;
56102;SDS011;41970;48.774;9.280;2023-04-10T15:21:55;1.73;;;1.50;;
56102;SDS011;41970;48.774;9.280;2023-04-10T15:24:21;1.67;;;1.57;;
56102;SDS011;41970;48.774;9.280;2023-04-10T15:26:46;2.00;;;1.90;;
56102;SDS011;41970;48.774;9.280;2023-04-10T15:29:12;1.90;;;1.50;;
56102;SDS011;41970;48.774;9.280;2023-04-10T15:31:38;1.63;;;1.53;;